sensor_id;sensor_type;location;lat;lon;timestamp;pressure;altitude;pressure_sealevel;temperature;humidity
15382;BME280;7789;51.364;12.358;2023-03-03T00:02:57;101004.13;;;2.64;100.00
15382;BME280;7789;51.364;12.358;2023-03-03T00:08:04;101000.09;;;2.58;100.00
15382;BME280;7789;51.364;12.358;2023-03-03T00:13:12;101001.00;;;2.57;100.00
15382;BME280;7789;51.364;12.358;2023-03-03T00:18:21;101000.84;;;2.60;100.00
15382;BME280;7789;51.364;12.358;2023-03-03T00:23:35;101001.63;;;2.62;100.00
15382;BME280;7789;51.364;12.358;2023-03-03T00:28:44;100999.88;;;2.63;100.00
15382;BME280;7789;51.364;12.358;2023-03-03T00:33:50;101000.72;;;2.63;100.00
15382;BME280;7789;51.364;12.358;2023-03-03T00:39:10;100998.44;;;2.56;100.00
15382;BME280;7789;51.364;12.358;2023-03-03T00:44:42;101004.03;;;2.67;100.00
15382;BME280;7789;51.364;12.358;2023-03-03T00:49:45;101013.16;;;2.54;100.00
15382;BME280;7789;51.364;12.358;2023-03-03T00:54:50;101019.47;;;2.47;100.00
15382;BME280;7789;51.364;12.358;2023-03-03T00:59:53;101002.97;;;2.51;100.00
15382;BME280;7789;51.364;12.358;2023-03-03T01:04:56;101003.63;;;2.56;100.00
15382;BME280;7789;51.364;12.358;2023-03-03T01:10:01;101006.19;;;2.56;100.00
15382;BME280;7789;51.364;12.358;2023-03-03T01:15:05;101001.97;;;2.53;100.00
15382;BME280;7789;51.364;12.358;2023-03-03T01:20:11;100991.63;;;2.55;100.00
15382;BME280;7789;51.364;12.358;2023-03-03T01:25:16;100989.34;;;2.47;100.00
15382;BME280;7789;51.364;12.358;2023-03-03T01:30:19;100989.88;;;2.55;100.00
15382;BME280;7789;51.364;12.358;2023-03-03T01:35:23;100987.31;;;2.55;100.00
15382;BME280;7789;51.364;12.358;2023-03-03T01:40:29;100979.63;;;2.54;100.00
15382;BME280;7789;51.364;12.358;2023-03-03T01:45:44;100990.25;;;2.46;100.00
15382;BME280;7789;51.364;12.358;2023-03-03T01:51:13;100983.69;;;2.38;100.00
15382;BME280;7789;51.364;12.358;2023-03-03T01:56:19;100998.09;;;2.43;100.00
15382;BME280;7789;51.364;12.358;2023-03-03T02:01:24;100994.88;;;2.38;100.00
15382;BME280;7789;51.364;12.358;2023-03-03T02:06:33;100993.56;;;2.27;100.00
15382;BME280;7789;51.364;12.358;2023-03-03T02:11:41;100993.69;;;2.24;100.00
15382;BME280;7789;51.364;12.358;2023-03-03T02:16:45;100990.16;;;2.26;100.00
15382;BME280;7789;51.364;12.358;2023-03-03T02:21:48;101001.50;;;2.22;100.00
15382;BME280;7789;51.364;12.358;2023-03-03T02:26:53;100998.31;;;2.16;100.00
15382;BME280;7789;51.364;12.358;2023-03-03T02:31:57;100998.53;;;2.10;100.00
15382;BME280;7789;51.364;12.358;2023-03-03T02:37:02;100996.97;;;2.06;100.00
15382;BME280;7789;51.364;12.358;2023-03-03T02:42:09;101001.97;;;2.10;100.00
15382;BME280;7789;51.364;12.358;2023-03-03T02:47:14;101007.59;;;2.20;100.00
15382;BME280;7789;51.364;12.358;2023-03-03T02:52:17;100994.84;;;2.17;100.00
15382;BME280;7789;51.364;12.358;2023-03-03T02:57:22;100999.00;;;2.19;100.00
15382;BME280;7789;51.364;12.358;2023-03-03T03:02:27;100973.22;;;2.19;100.00
15382;BME280;7789;51.364;12.358;2023-03-03T03:07:30;100962.69;;;2.25;100.00
15382;BME280;7789;51.364;12.358;2023-03-03T03:12:34;100955.88;;;2.24;100.00
15382;BME280;7789;51.364;12.358;2023-03-03T03:17:38;100961.72;;;2.28;100.00
15382;BME280;7789;51.364;12.358;2023-03-03T03:22:41;100968.56;;;2.29;100.00
15382;BME280;7789;51.364;12.358;2023-03-03T03:27:46;100975.44;;;2.30;100.00
15382;BME280;7789;51.364;12.358;2023-03-03T03:32:50;100988.63;;;2.22;100.00
15382;BME280;7789;51.364;12.358;2023-03-03T03:37:53;100989.00;;;2.12;100.00
15382;BME280;7789;51.364;12.358;2023-03-03T03:42:58;100997.69;;;2.09;100.00
15382;BME280;7789;51.364;12.358;2023-03-03T03:48:02;100997.03;;;2.04;100.00
15382;BME280;7789;51.364;12.358;2023-03-03T03:53:06;100994.25;;;2.09;100.00
15382;BME280;7789;51.364;12.358;2023-03-03T03:58:12;100991.56;;;2.12;100.00
15382;BME280;7789;51.364;12.358;2023-03-03T04:03:16;100994.88;;;2.15;100.00
15382;BME280;7789;51.364;12.358;2023-03-03T04:08:19;101004.38;;;2.15;100.00
15382;BME280;7789;51.364;12.358;2023-03-03T04:13:24;101009.81;;;2.07;100.00
15382;BME280;7789;51.364;12.358;2023-03-03T04:18:29;101011.78;;;2.01;100.00
15382;BME280;7789;51.364;12.358;2023-03-03T04:23:32;101013.38;;;2.03;100.00
15382;BME280;7789;51.364;12.358;2023-03-03T04:28:37;101015.94;;;2.03;100.00
15382;BME280;7789;51.364;12.358;2023-03-03T04:33:41;101015.78;;;2.08;100.00
15382;BME280;7789;51.364;12.358;2023-03-03T04:38:44;101015.47;;;2.17;100.00
15382;BME280;7789;51.364;12.358;2023-03-03T04:43:49;101028.84;;;2.26;100.00
15382;BME280;7789;51.364;12.358;2023-03-03T04:48:52;101021.16;;;2.25;100.00
15382;BME280;7789;51.364;12.358;2023-03-03T04:53:59;101008.38;;;2.22;100.00
15382;BME280;7789;51.364;12.358;2023-03-03T04:59:04;101009.03;;;2.27;100.00
15382;BME280;7789;51.364;12.358;2023-03-03T05:04:08;101016.63;;;2.31;100.00
15382;BME280;7789;51.364;12.358;2023-03-03T05:09:12;101020.88;;;2.32;100.00
15382;BME280;7789;51.364;12.358;2023-03-03T05:14:21;101019.97;;;2.33;100.00
15382;BME280;7789;51.364;12.358;2023-03-03T05:19:27;101023.84;;;2.22;100.00
15382;BME280;7789;51.364;12.358;2023-03-03T05:24:30;101034.53;;;2.13;100.00
15382;BME280;7789;51.364;12.358;2023-03-03T05:35:10;101029.75;;;2.25;100.00
15382;BME280;7789;51.364;12.358;2023-03-03T05:40:41;101028.69;;;2.31;100.00
15382;BME280;7789;51.364;12.358;2023-03-03T05:45:46;101026.19;;;2.28;100.00
15382;BME280;7789;51.364;12.358;2023-03-03T05:51:05;101014.13;;;2.30;100.00
15382;BME280;7789;51.364;12.358;2023-03-03T05:56:09;101018.13;;;2.37;100.00
15382;BME280;7789;51.364;12.358;2023-03-03T06:01:15;101016.16;;;2.43;100.00
15382;BME280;7789;51.364;12.358;2023-03-03T06:06:21;101029.84;;;2.45;100.00
15382;BME280;7789;51.364;12.358;2023-03-03T06:11:39;101038.75;;;2.37;100.00
15382;BME280;7789;51.364;12.358;2023-03-03T06:16:51;101062.91;;;2.34;100.00
15382;BME280;7789;51.364;12.358;2023-03-03T06:27:32;101056.75;;;2.38;100.00
15382;BME280;7789;51.364;12.358;2023-03-03T06:32:37;101053.16;;;2.42;100.00
15382;BME280;7789;51.364;12.358;2023-03-03T06:37:41;101048.78;;;2.44;100.00
15382;BME280;7789;51.364;12.358;2023-03-03T06:42:44;101047.75;;;2.48;100.00
15382;BME280;7789;51.364;12.358;2023-03-03T06:48:15;101057.34;;;2.45;100.00
15382;BME280;7789;51.364;12.358;2023-03-03T06:53:35;101065.78;;;2.50;100.00
15382;BME280;7789;51.364;12.358;2023-03-03T06:58:58;101076.88;;;2.52;100.00
15382;BME280;7789;51.364;12.358;2023-03-03T07:04:10;101100.13;;;2.50;100.00
15382;BME280;7789;51.364;12.358;2023-03-03T07:09:19;101098.03;;;2.38;100.00
15382;BME280;7789;51.364;12.358;2023-03-03T07:14:24;101097.34;;;2.33;100.00
15382;BME280;7789;51.364;12.358;2023-03-03T07:19:33;101094.47;;;2.41;100.00
15382;BME280;7789;51.364;12.358;2023-03-03T07:24:58;101107.16;;;2.47;100.00
15382;BME280;7789;51.364;12.358;2023-03-03T07:30:22;101111.06;;;2.57;100.00
15382;BME280;7789;51.364;12.358;2023-03-03T07:35:36;101113.66;;;2.57;100.00
15382;BME280;7789;51.364;12.358;2023-03-03T07:40:46;101121.69;;;2.49;100.00
15382;BME280;7789;51.364;12.358;2023-03-03T07:48:30;101132.00;;;2.49;100.00
15382;BME280;7789;51.364;12.358;2023-03-03T07:52:59;101122.16;;;2.59;100.00
15382;BME280;7789;51.364;12.358;2023-03-03T07:58:47;101131.97;;;2.72;100.00
15382;BME280;7789;51.364;12.358;2023-03-03T08:03:59;101131.69;;;2.80;100.00
15382;BME280;7789;51.364;12.358;2023-03-03T08:15:11;101129.50;;;2.92;100.00
15382;BME280;7789;51.364;12.358;2023-03-03T08:20:50;101123.91;;;3.03;100.00
15382;BME280;7789;51.364;12.358;2023-03-03T08:25:54;101124.09;;;3.20;100.00
15382;BME280;7789;51.364;12.358;2023-03-03T08:31:02;101124.38;;;3.34;99.34
15382;BME280;7789;51.364;12.358;2023-03-03T08:36:59;101126.75;;;3.38;98.54
15382;BME280;7789;51.364;12.358;2023-03-03T08:42:06;101127.44;;;3.43;99.11
15382;BME280;7789;51.364;12.358;2023-03-03T08:47:11;101130.72;;;3.47;98.84
15382;BME280;7789;51.364;12.358;2023-03-03T08:52:14;101133.00;;;3.54;98.56
15382;BME280;7789;51.364;12.358;2023-03-03T08:57:55;101142.50;;;3.54;97.99
15382;BME280;7789;51.364;12.358;2023-03-03T09:03:00;101145.53;;;3.63;98.44
15382;BME280;7789;51.364;12.358;2023-03-03T09:08:04;101146.78;;;3.74;97.46
15382;BME280;7789;51.364;12.358;2023-03-03T09:13:12;101146.50;;;3.80;98.29
15382;BME280;7789;51.364;12.358;2023-03-03T09:18:18;101143.03;;;3.81;97.70
15382;BME280;7789;51.364;12.358;2023-03-03T09:23:32;101131.59;;;3.87;97.74
15382;BME280;7789;51.364;12.358;2023-03-03T09:28:36;101137.03;;;4.01;97.22
15382;BME280;7789;51.364;12.358;2023-03-03T09:33:42;101141.88;;;4.08;97.22
15382;BME280;7789;51.364;12.358;2023-03-03T09:38:46;101145.84;;;4.15;96.94
15382;BME280;7789;51.364;12.358;2023-03-03T09:44:04;101144.69;;;4.22;96.27
15382;BME280;7789;51.364;12.358;2023-03-03T09:49:24;101159.38;;;4.22;96.73
15382;BME280;7789;51.364;12.358;2023-03-03T09:54:49;101136.94;;;4.22;96.67
15382;BME280;7789;51.364;12.358;2023-03-03T10:00:18;101140.03;;;4.30;95.83
15382;BME280;7789;51.364;12.358;2023-03-03T10:05:32;101129.91;;;4.26;96.20
15382;BME280;7789;51.364;12.358;2023-03-03T10:10:46;101149.47;;;4.31;95.89
15382;BME280;7789;51.364;12.358;2023-03-03T10:16:13;101145.00;;;4.35;96.34
15382;BME280;7789;51.364;12.358;2023-03-03T10:21:29;101149.91;;;4.41;96.76
15382;BME280;7789;51.364;12.358;2023-03-03T10:26:50;101152.72;;;4.55;96.30
15382;BME280;7789;51.364;12.358;2023-03-03T10:32:39;101152.13;;;4.68;96.53
15382;BME280;7789;51.364;12.358;2023-03-03T10:37:57;101148.28;;;4.77;96.75
15382;BME280;7789;51.364;12.358;2023-03-03T10:43:15;101140.84;;;4.88;95.65
15382;BME280;7789;51.364;12.358;2023-03-03T10:48:54;101145.03;;;4.90;95.93
15382;BME280;7789;51.364;12.358;2023-03-03T10:54:13;101153.38;;;4.97;95.76
15382;BME280;7789;51.364;12.358;2023-03-03T10:59:35;101147.00;;;4.85;95.63
15382;BME280;7789;51.364;12.358;2023-03-03T11:04:51;101141.84;;;4.85;95.76
15382;BME280;7789;51.364;12.358;2023-03-03T11:10:06;101141.25;;;4.97;96.29
15382;BME280;7789;51.364;12.358;2023-03-03T11:15:39;101129.06;;;4.99;96.00
15382;BME280;7789;51.364;12.358;2023-03-03T11:20:50;101133.81;;;5.08;96.39
15382;BME280;7789;51.364;12.358;2023-03-03T11:26:06;101122.19;;;5.17;96.04
15382;BME280;7789;51.364;12.358;2023-03-03T11:31:17;101129.94;;;5.17;95.49
15382;BME280;7789;51.364;12.358;2023-03-03T11:36:27;101122.03;;;5.20;95.55
15382;BME280;7789;51.364;12.358;2023-03-03T11:41:39;101125.31;;;5.23;95.44
15382;BME280;7789;51.364;12.358;2023-03-03T11:46:45;101132.28;;;5.39;95.11
15382;BME280;7789;51.364;12.358;2023-03-03T11:51:58;101132.75;;;5.47;94.24
15382;BME280;7789;51.364;12.358;2023-03-03T11:57:17;101130.06;;;5.49;94.27
15382;BME280;7789;51.364;12.358;2023-03-03T12:02:38;101126.47;;;5.35;93.97
15382;BME280;7789;51.364;12.358;2023-03-03T12:07:51;101125.34;;;5.40;93.71
15382;BME280;7789;51.364;12.358;2023-03-03T12:13:04;101119.53;;;5.52;93.19
15382;BME280;7789;51.364;12.358;2023-03-03T12:18:38;101105.97;;;5.64;92.57
15382;BME280;7789;51.364;12.358;2023-03-03T12:23:59;101101.16;;;5.73;92.11
15382;BME280;7789;51.364;12.358;2023-03-03T12:29:15;101094.25;;;5.74;91.25
15382;BME280;7789;51.364;12.358;2023-03-03T12:34:28;101090.44;;;5.81;90.83
15382;BME280;7789;51.364;12.358;2023-03-03T12:39:42;101087.78;;;5.82;90.91
15382;BME280;7789;51.364;12.358;2023-03-03T12:44:54;101080.91;;;5.81;91.15
15382;BME280;7789;51.364;12.358;2023-03-03T12:50:13;101092.59;;;5.90;90.89
15382;BME280;7789;51.364;12.358;2023-03-03T12:55:31;101072.75;;;5.89;90.86
15382;BME280;7789;51.364;12.358;2023-03-03T13:00:46;101074.56;;;5.87;91.11
15382;BME280;7789;51.364;12.358;2023-03-03T13:05:57;101070.38;;;5.84;90.82
15382;BME280;7789;51.364;12.358;2023-03-03T13:11:18;101056.91;;;5.93;90.39
15382;BME280;7789;51.364;12.358;2023-03-03T13:16:29;101054.25;;;5.95;90.64
15382;BME280;7789;51.364;12.358;2023-03-03T13:21:46;101062.97;;;5.94;90.77
15382;BME280;7789;51.364;12.358;2023-03-03T13:26:54;101073.00;;;6.00;91.14
15382;BME280;7789;51.364;12.358;2023-03-03T13:32:08;101066.09;;;6.00;91.07
15382;BME280;7789;51.364;12.358;2023-03-03T13:37:19;101069.88;;;5.93;90.97
15382;BME280;7789;51.364;12.358;2023-03-03T13:42:27;101068.16;;;5.94;90.57
15382;BME280;7789;51.364;12.358;2023-03-03T13:47:40;101060.44;;;5.92;91.54
15382;BME280;7789;51.364;12.358;2023-03-03T13:52:59;101056.34;;;5.88;91.49
15382;BME280;7789;51.364;12.358;2023-03-03T13:58:14;101063.03;;;5.92;91.61
15382;BME280;7789;51.364;12.358;2023-03-03T14:03:54;101045.50;;;5.97;90.53
15382;BME280;7789;51.364;12.358;2023-03-03T14:09:30;101036.78;;;5.98;90.29
15382;BME280;7789;51.364;12.358;2023-03-03T14:14:44;101027.41;;;5.96;90.87
15382;BME280;7789;51.364;12.358;2023-03-03T14:19:59;101018.34;;;6.03;90.33
15382;BME280;7789;51.364;12.358;2023-03-03T14:25:09;101017.53;;;6.02;89.93
15382;BME280;7789;51.364;12.358;2023-03-03T14:30:27;101010.44;;;6.06;90.23
15382;BME280;7789;51.364;12.358;2023-03-03T14:35:34;101016.28;;;6.09;90.60
15382;BME280;7789;51.364;12.358;2023-03-03T14:40:41;101005.66;;;6.14;90.62
15382;BME280;7789;51.364;12.358;2023-03-03T14:45:47;101009.00;;;6.16;90.30
15382;BME280;7789;51.364;12.358;2023-03-03T14:50:56;100992.34;;;6.20;89.23
15382;BME280;7789;51.364;12.358;2023-03-03T14:56:21;101001.22;;;6.16;88.90
15382;BME280;7789;51.364;12.358;2023-03-03T15:01:30;100991.94;;;6.12;88.90
15382;BME280;7789;51.364;12.358;2023-03-03T15:06:40;100990.44;;;6.08;89.10
15382;BME280;7789;51.364;12.358;2023-03-03T15:11:44;100999.72;;;6.12;89.32
15382;BME280;7789;51.364;12.358;2023-03-03T15:16:48;100995.78;;;6.05;88.49
15382;BME280;7789;51.364;12.358;2023-03-03T15:22:01;100992.34;;;6.04;88.46
15382;BME280;7789;51.364;12.358;2023-03-03T15:27:11;101000.53;;;5.97;88.69
15382;BME280;7789;51.364;12.358;2023-03-03T15:32:26;100998.34;;;5.89;88.46
15382;BME280;7789;51.364;12.358;2023-03-03T15:37:41;100981.84;;;5.90;88.45
15382;BME280;7789;51.364;12.358;2023-03-03T15:42:56;100985.75;;;5.82;88.19
15382;BME280;7789;51.364;12.358;2023-03-03T15:48:20;100993.09;;;5.74;88.92
15382;BME280;7789;51.364;12.358;2023-03-03T15:53:49;100992.34;;;5.72;88.85
15382;BME280;7789;51.364;12.358;2023-03-03T16:04:37;100989.06;;;5.68;88.88
15382;BME280;7789;51.364;12.358;2023-03-03T16:09:51;100986.47;;;5.68;89.19
15382;BME280;7789;51.364;12.358;2023-03-03T16:15:14;100976.25;;;5.65;89.12
15382;BME280;7789;51.364;12.358;2023-03-03T16:20:22;100980.00;;;5.60;88.94
15382;BME280;7789;51.364;12.358;2023-03-03T16:25:39;100983.69;;;5.56;89.32
15382;BME280;7789;51.364;12.358;2023-03-03T16:30:50;101001.94;;;5.53;89.22
15382;BME280;7789;51.364;12.358;2023-03-03T16:36:02;101000.44;;;5.49;89.41
15382;BME280;7789;51.364;12.358;2023-03-03T16:41:14;100999.00;;;5.43;89.43
15382;BME280;7789;51.364;12.358;2023-03-03T16:46:30;100998.16;;;5.43;89.93
15382;BME280;7789;51.364;12.358;2023-03-03T16:51:40;100994.81;;;5.41;89.39
15382;BME280;7789;51.364;12.358;2023-03-03T16:56:57;100991.38;;;5.40;89.41
15382;BME280;7789;51.364;12.358;2023-03-03T17:02:15;101007.94;;;5.38;89.74
15382;BME280;7789;51.364;12.358;2023-03-03T17:07:36;101004.81;;;5.32;89.55
15382;BME280;7789;51.364;12.358;2023-03-03T17:18:35;101009.47;;;5.25;90.24
15382;BME280;7789;51.364;12.358;2023-03-03T17:23:51;100999.00;;;5.27;90.18
15382;BME280;7789;51.364;12.358;2023-03-03T17:29:06;101012.06;;;5.25;90.15
15382;BME280;7789;51.364;12.358;2023-03-03T17:34:22;101009.38;;;5.27;90.24
15382;BME280;7789;51.364;12.358;2023-03-03T17:39:49;101011.91;;;5.28;90.85
15382;BME280;7789;51.364;12.358;2023-03-03T17:45:04;101013.88;;;5.23;90.88
15382;BME280;7789;51.364;12.358;2023-03-03T17:50:20;101009.63;;;5.22;90.98
15382;BME280;7789;51.364;12.358;2023-03-03T17:55:40;101001.38;;;5.14;90.49
15382;BME280;7789;51.364;12.358;2023-03-03T18:00:53;101005.63;;;5.15;90.77
15382;BME280;7789;51.364;12.358;2023-03-03T18:11:57;101010.00;;;5.15;90.65
15382;BME280;7789;51.364;12.358;2023-03-03T18:17:18;101014.16;;;5.17;90.83
15382;BME280;7789;51.364;12.358;2023-03-03T18:22:31;100998.88;;;5.13;90.63
15382;BME280;7789;51.364;12.358;2023-03-03T18:27:36;101008.38;;;5.12;90.69
15382;BME280;7789;51.364;12.358;2023-03-03T18:32:41;101000.72;;;5.11;90.52
15382;BME280;7789;51.364;12.358;2023-03-03T18:37:48;101003.44;;;5.08;90.83
15382;BME280;7789;51.364;12.358;2023-03-03T18:42:53;101002.75;;;5.04;90.93
15382;BME280;7789;51.364;12.358;2023-03-03T18:48:07;101013.25;;;5.01;91.66
15382;BME280;7789;51.364;12.358;2023-03-03T18:53:24;101004.81;;;4.98;91.53
15382;BME280;7789;51.364;12.358;2023-03-03T18:58:38;101006.69;;;4.94;91.85
15382;BME280;7789;51.364;12.358;2023-03-03T19:04:01;101010.97;;;4.95;91.83
15382;BME280;7789;51.364;12.358;2023-03-03T19:09:10;101009.22;;;4.96;91.63
15382;BME280;7789;51.364;12.358;2023-03-03T19:14:18;101012.94;;;4.90;91.69
15382;BME280;7789;51.364;12.358;2023-03-03T19:19:29;101013.38;;;4.81;91.66
15382;BME280;7789;51.364;12.358;2023-03-03T19:24:36;101015.06;;;4.82;92.23
15382;BME280;7789;51.364;12.358;2023-03-03T19:30:18;101019.56;;;4.79;92.26
15382;BME280;7789;51.364;12.358;2023-03-03T19:35:31;101014.44;;;4.77;92.31
15382;BME280;7789;51.364;12.358;2023-03-03T19:40:45;101008.44;;;4.77;92.59
15382;BME280;7789;51.364;12.358;2023-03-03T19:46:01;101002.56;;;4.73;92.44
15382;BME280;7789;51.364;12.358;2023-03-03T19:51:26;101004.59;;;4.67;93.01
15382;BME280;7789;51.364;12.358;2023-03-03T19:56:44;101004.81;;;4.62;92.07
15382;BME280;7789;51.364;12.358;2023-03-03T20:02:17;101004.75;;;4.64;93.09
15382;BME280;7789;51.364;12.358;2023-03-03T20:07:37;101009.94;;;4.64;92.65
15382;BME280;7789;51.364;12.358;2023-03-03T20:12:53;101004.09;;;4.59;92.73
15382;BME280;7789;51.364;12.358;2023-03-03T20:18:19;101005.81;;;4.60;92.67
15382;BME280;7789;51.364;12.358;2023-03-03T20:23:36;101000.69;;;4.58;92.47
15382;BME280;7789;51.364;12.358;2023-03-03T20:34:15;101014.00;;;4.51;92.52
15382;BME280;7789;51.364;12.358;2023-03-03T20:39:33;101004.50;;;4.51;92.71
15382;BME280;7789;51.364;12.358;2023-03-03T20:44:51;101005.25;;;4.53;93.25
15382;BME280;7789;51.364;12.358;2023-03-03T20:50:13;101005.31;;;4.52;93.16
15382;BME280;7789;51.364;12.358;2023-03-03T20:55:27;101008.13;;;4.47;93.18
15382;BME280;7789;51.364;12.358;2023-03-03T21:00:39;101003.28;;;4.40;93.50
15382;BME280;7789;51.364;12.358;2023-03-03T21:05:55;101006.88;;;4.37;93.60
15382;BME280;7789;51.364;12.358;2023-03-03T21:10:59;101010.94;;;4.43;93.18
15382;BME280;7789;51.364;12.358;2023-03-03T21:16:10;101013.38;;;4.46;93.29
15382;BME280;7789;51.364;12.358;2023-03-03T21:21:14;101005.88;;;4.40;93.18
15382;BME280;7789;51.364;12.358;2023-03-03T21:26:45;100996.44;;;4.39;93.33
15382;BME280;7789;51.364;12.358;2023-03-03T21:31:52;101000.09;;;4.35;92.83
15382;BME280;7789;51.364;12.358;2023-03-03T21:36:56;100996.59;;;4.36;93.54
15382;BME280;7789;51.364;12.358;2023-03-03T21:42:02;100993.44;;;4.29;93.15
15382;BME280;7789;51.364;12.358;2023-03-03T21:47:09;100993.66;;;4.25;92.63
15382;BME280;7789;51.364;12.358;2023-03-03T21:52:15;100992.13;;;4.21;93.10
15382;BME280;7789;51.364;12.358;2023-03-03T21:57:19;100980.38;;;4.14;93.25
15382;BME280;7789;51.364;12.358;2023-03-03T22:02:24;100970.19;;;4.11;93.49
15382;BME280;7789;51.364;12.358;2023-03-03T22:07:28;100960.59;;;4.13;93.49
15382;BME280;7789;51.364;12.358;2023-03-03T22:12:31;100972.78;;;4.11;93.86
15382;BME280;7789;51.364;12.358;2023-03-03T22:17:35;100962.63;;;4.06;93.59
15382;BME280;7789;51.364;12.358;2023-03-03T22:22:39;100962.84;;;4.02;93.94
15382;BME280;7789;51.364;12.358;2023-03-03T22:27:42;100958.72;;;3.98;94.01
15382;BME280;7789;51.364;12.358;2023-03-03T22:32:47;100964.81;;;3.97;94.28
15382;BME280;7789;51.364;12.358;2023-03-03T22:37:53;100958.91;;;3.93;94.29
15382;BME280;7789;51.364;12.358;2023-03-03T22:42:57;100965.00;;;3.92;94.80
15382;BME280;7789;51.364;12.358;2023-03-03T22:48:02;100956.47;;;3.90;95.18
15382;BME280;7789;51.364;12.358;2023-03-03T22:53:09;100955.38;;;3.96;95.44
15382;BME280;7789;51.364;12.358;2023-03-03T22:58:12;100944.38;;;3.91;95.12
15382;BME280;7789;51.364;12.358;2023-03-03T23:03:18;100947.09;;;3.88;95.82
15382;BME280;7789;51.364;12.358;2023-03-03T23:08:22;100939.28;;;3.89;96.00
15382;BME280;7789;51.364;12.358;2023-03-03T23:13:26;100924.69;;;3.88;96.41
15382;BME280;7789;51.364;12.358;2023-03-03T23:18:30;100916.94;;;3.88;95.98
15382;BME280;7789;51.364;12.358;2023-03-03T23:23:33;100916.94;;;3.88;96.24
15382;BME280;7789;51.364;12.358;2023-03-03T23:28:37;100908.25;;;3.89;96.04
15382;BME280;7789;51.364;12.358;2023-03-03T23:33:42;100916.06;;;3.88;95.70
15382;BME280;7789;51.364;12.358;2023-03-03T23:38:45;100900.34;;;3.92;95.65
15382;BME280;7789;51.364;12.358;2023-03-03T23:43:48;100898.53;;;3.94;96.14
15382;BME280;7789;51.364;12.358;2023-03-03T23:48:53;100889.03;;;3.95;96.00
15382;BME280;7789;51.364;12.358;2023-03-03T23:53:56;100881.50;;;3.90;96.01
15382;BME280;7789;51.364;12.358;2023-03-03T23:59:00;100883.38;;;3.87;96.11
